createdAt,value
2018-07-24T00:01:01.135Z,1012.13
2018-07-24T00:02:01.160Z,1012.18
2018-07-24T00:03:01.187Z,1012.16
2018-07-24T00:04:01.209Z,1012.16
2018-07-24T00:05:01.234Z,1012.17
2018-07-24T00:06:01.259Z,1012.18
2018-07-24T00:07:01.286Z,1012.17
2018-07-24T00:08:01.309Z,1012.14
2018-07-24T00:09:01.333Z,1012.2
2018-07-24T00:10:01.358Z,1012.19
2018-07-24T00:11:01.435Z,1012.18
2018-07-24T00:12:01.410Z,1012.18
2018-07-24T00:13:01.433Z,1012.16
2018-07-24T00:14:01.458Z,1012.14
2018-07-24T00:15:01.482Z,1012.16
2018-07-24T00:17:01.533Z,1012.13
2018-07-24T00:18:01.561Z,1012.12
2018-07-24T00:19:01.584Z,1012.15
2018-07-24T00:20:01.612Z,1012.11
2018-07-24T00:21:01.632Z,1012.1
2018-07-24T00:22:01.657Z,1012.09
2018-07-24T00:23:01.684Z,1012.11
2018-07-24T00:24:01.706Z,1012.11
2018-07-24T00:25:01.732Z,1012.12
2018-07-24T00:26:01.756Z,1012.09
2018-07-24T00:27:01.781Z,1012.1
2018-07-24T00:28:01.804Z,1012.09
2018-07-24T00:29:01.833Z,1012.1
2018-07-24T00:30:01.855Z,1012.09
2018-07-24T00:31:01.878Z,1012.08
2018-07-24T00:33:01.929Z,1012.09
2018-07-24T00:34:01.954Z,1012.04
2018-07-24T00:35:01.980Z,1012.08
2018-07-24T00:36:02.002Z,1012.09
2018-07-24T00:37:02.027Z,1012.07
2018-07-24T00:38:02.054Z,1012.02
2018-07-24T00:39:02.080Z,1012.01
2018-07-24T00:40:02.101Z,1012.01
2018-07-24T00:41:02.133Z,1012.03
2018-07-24T00:42:02.150Z,1011.99
2018-07-24T00:43:02.180Z,1011.98
2018-07-24T00:44:02.203Z,1011.96
2018-07-24T00:45:02.230Z,1011.94
2018-07-24T00:46:02.251Z,1011.97
2018-07-24T00:48:02.306Z,1011.97
2018-07-24T00:49:02.329Z,1011.97
2018-07-24T00:50:02.353Z,1011.93
2018-07-24T00:51:02.375Z,1011.92
2018-07-24T00:52:02.398Z,1011.93
2018-07-24T00:53:02.425Z,1011.93
2018-07-24T00:54:02.457Z,1011.93
2018-07-24T00:55:02.472Z,1011.95
2018-07-24T00:56:02.499Z,1011.89
2018-07-24T00:57:02.521Z,1011.94
2018-07-24T00:58:02.546Z,1011.89
2018-07-24T00:59:02.573Z,1011.91
2018-07-24T01:00:02.596Z,1011.9
2018-07-24T01:01:02.620Z,1011.88
2018-07-24T01:02:02.645Z,1011.88
2018-07-24T01:03:02.673Z,1011.88
2018-07-24T01:04:02.694Z,1011.88
2018-07-24T01:05:02.719Z,1011.87
2018-07-24T01:06:02.743Z,1011.87
2018-07-24T01:07:02.768Z,1011.84
2018-07-24T01:08:02.792Z,1011.84
2018-07-24T01:09:02.821Z,1011.83
2018-07-24T01:10:02.842Z,1011.85
2018-07-24T01:11:02.865Z,1011.87
2018-07-24T01:12:02.891Z,1011.82
2018-07-24T01:13:02.915Z,1011.83
2018-07-24T01:14:02.940Z,1011.84
2018-07-24T01:15:02.965Z,1011.84
2018-07-24T01:16:02.991Z,1011.82
2018-07-24T01:17:03.017Z,1011.87
2018-07-24T01:18:03.038Z,1011.86
2018-07-24T01:20:03.087Z,1011.92
2018-07-24T01:21:03.113Z,1011.93
2018-07-24T01:22:03.136Z,1011.97
2018-07-24T01:23:03.171Z,1011.97
2018-07-24T01:24:03.187Z,1011.98
2018-07-24T01:25:03.210Z,1011.98
2018-07-24T01:26:03.234Z,1011.98
2018-07-24T01:27:03.258Z,1011.96
2018-07-24T01:28:03.284Z,1011.97
2018-07-24T01:29:03.307Z,1011.96
2018-07-24T01:30:03.331Z,1011.94
2018-07-24T01:31:03.357Z,1011.97
2018-07-24T01:32:03.383Z,1012
2018-07-24T01:33:03.407Z,1011.98
2018-07-24T01:34:03.431Z,1011.92
2018-07-24T01:36:03.481Z,1011.9
2018-07-24T01:37:03.503Z,1011.93
2018-07-24T01:38:03.529Z,1011.91
2018-07-24T01:39:03.556Z,1011.91
2018-07-24T01:40:03.577Z,1011.9
2018-07-24T01:41:03.601Z,1011.89
2018-07-24T01:42:03.667Z,1011.86
2018-07-24T01:43:03.652Z,1011.89
2018-07-24T01:44:03.674Z,1011.88
2018-07-24T01:45:03.699Z,1011.89
2018-07-24T01:46:03.724Z,1011.87
2018-07-24T01:47:03.748Z,1011.87
2018-07-24T01:48:03.773Z,1011.85
2018-07-24T01:49:03.798Z,1011.87
2018-07-24T01:50:03.822Z,1011.87
2018-07-24T01:52:03.870Z,1011.85
2018-07-24T01:53:03.895Z,1011.81
2018-07-24T01:54:03.920Z,1011.84
2018-07-24T01:55:03.945Z,1011.81
2018-07-24T01:56:04.008Z,1011.81
2018-07-24T01:57:03.993Z,1011.83
2018-07-24T01:58:04.017Z,1011.86
2018-07-24T01:59:04.039Z,1011.83
2018-07-24T02:00:04.066Z,1011.85
2018-07-24T02:01:04.090Z,1011.81
2018-07-24T02:02:04.114Z,1011.84
2018-07-24T02:03:04.139Z,1011.87
2018-07-24T02:04:04.163Z,1011.78
2018-07-24T02:05:04.188Z,1011.8
2018-07-24T02:06:04.212Z,1011.83
2018-07-24T02:08:04.259Z,1011.8
2018-07-24T02:09:04.284Z,1011.78
2018-07-24T02:10:04.309Z,1011.75
2018-07-24T02:11:04.333Z,1011.75
2018-07-24T02:12:04.359Z,1011.74
2018-07-24T02:13:04.382Z,1011.76
2018-07-24T02:14:04.406Z,1011.77
2018-07-24T02:15:04.430Z,1011.79
2018-07-24T02:16:04.456Z,1011.81
2018-07-24T02:17:04.479Z,1011.8
2018-07-24T02:18:04.507Z,1011.8
2018-07-24T02:19:04.527Z,1011.79
2018-07-24T02:20:04.554Z,1011.78
2018-07-24T02:21:04.578Z,1011.77
2018-07-24T02:23:04.625Z,1011.75
2018-07-24T02:24:04.650Z,1011.76
2018-07-24T02:25:04.674Z,1011.76
2018-07-24T02:26:04.700Z,1011.74
2018-07-24T02:27:04.725Z,1011.77
2018-07-24T02:28:04.748Z,1011.75
2018-07-24T02:29:04.772Z,1011.75
2018-07-24T02:30:04.798Z,1011.76
2018-07-24T02:31:04.823Z,1011.75
2018-07-24T02:32:04.844Z,1011.73
2018-07-24T02:33:04.870Z,1011.74
2018-07-24T02:34:04.895Z,1011.75
2018-07-24T02:35:04.921Z,1011.74
2018-07-24T02:36:04.942Z,1011.74
2018-07-24T02:37:05.068Z,1011.74
2018-07-24T02:38:04.991Z,1011.76
2018-07-24T02:39:05.015Z,1011.72
2018-07-24T02:40:05.039Z,1011.73
2018-07-24T02:41:05.069Z,1011.7
2018-07-24T02:42:05.086Z,1011.68
2018-07-24T02:43:05.111Z,1011.67
2018-07-24T02:44:05.137Z,1011.7
2018-07-24T02:45:05.161Z,1011.68
2018-07-24T02:46:05.189Z,1011.63
2018-07-24T02:47:05.207Z,1011.69
2018-07-24T02:48:05.231Z,1011.68
2018-07-24T02:49:05.258Z,1011.71
2018-07-24T02:50:05.280Z,1011.73
2018-07-24T02:51:05.306Z,1011.76
2018-07-24T02:52:05.330Z,1011.74
2018-07-24T02:53:05.353Z,1011.73
2018-07-24T02:55:05.403Z,1011.79
2018-07-24T02:56:05.427Z,1011.77
2018-07-24T02:57:05.486Z,1011.79
2018-07-24T02:58:05.474Z,1011.8
2018-07-24T02:59:05.500Z,1011.78
2018-07-24T03:00:05.523Z,1011.78
2018-07-24T03:01:05.547Z,1011.79
2018-07-24T03:02:05.571Z,1011.77
2018-07-24T03:03:05.596Z,1011.75
2018-07-24T03:04:05.618Z,1011.78
2018-07-24T03:05:05.646Z,1011.79
2018-07-24T03:06:05.676Z,1011.75
2018-07-24T03:07:05.696Z,1011.78
2018-07-24T03:08:05.716Z,1011.78
2018-07-24T03:09:05.786Z,1011.78
2018-07-24T03:11:05.789Z,1011.79
2018-07-24T03:12:05.814Z,1011.79
2018-07-24T03:13:05.836Z,1011.78
2018-07-24T03:14:05.860Z,1011.82
2018-07-24T03:15:05.883Z,1011.8
2018-07-24T03:16:05.973Z,1011.79
2018-07-24T03:17:05.938Z,1011.81
2018-07-24T03:18:05.957Z,1011.78
2018-07-24T03:19:05.980Z,1011.84
2018-07-24T03:20:06.005Z,1011.88
2018-07-24T03:21:06.030Z,1011.86
2018-07-24T03:22:06.055Z,1011.9
2018-07-24T03:23:06.078Z,1011.86
2018-07-24T03:24:06.102Z,1011.91
2018-07-24T03:25:06.137Z,1011.88
2018-07-24T03:27:06.175Z,1011.92
2018-07-24T03:28:06.198Z,1011.92
2018-07-24T03:29:06.222Z,1011.88
2018-07-24T03:30:06.246Z,1011.86
2018-07-24T03:31:06.273Z,1011.84
2018-07-24T03:32:06.295Z,1011.88
2018-07-24T03:33:06.319Z,1011.91
2018-07-24T03:34:06.343Z,1011.92
2018-07-24T03:35:06.367Z,1011.93
2018-07-24T03:36:06.391Z,1011.92
2018-07-24T03:37:06.416Z,1011.94
2018-07-24T03:38:06.438Z,1011.93
2018-07-24T03:39:06.462Z,1011.93
2018-07-24T03:40:06.490Z,1011.92
2018-07-24T03:41:06.511Z,1011.89
2018-07-24T03:43:06.560Z,1011.93
2018-07-24T03:44:06.584Z,1011.96
2018-07-24T03:45:06.654Z,1011.99
2018-07-24T03:46:06.632Z,1011.98
2018-07-24T03:47:06.656Z,1012
2018-07-24T03:48:06.679Z,1011.97
2018-07-24T03:49:06.703Z,1012
2018-07-24T03:50:06.730Z,1011.99
2018-07-24T03:51:06.753Z,1011.97
2018-07-24T03:52:06.775Z,1012.02
2018-07-24T03:53:06.800Z,1012.03
2018-07-24T03:54:06.825Z,1012.03
2018-07-24T03:55:06.848Z,1012.01
2018-07-24T03:56:06.873Z,1011.99
2018-07-24T03:58:06.922Z,1012.03
2018-07-24T03:59:06.946Z,1011.99
2018-07-24T04:00:06.971Z,1012.02
2018-07-24T04:01:06.995Z,1012.03
2018-07-24T04:02:07.018Z,1012.04
2018-07-24T04:03:07.052Z,1012.05
2018-07-24T04:04:07.066Z,1012.06
2018-07-24T04:05:07.091Z,1012.07
2018-07-24T04:06:07.115Z,1011.97
2018-07-24T04:07:07.142Z,1011.95
2018-07-24T04:08:07.164Z,1011.95
2018-07-24T04:09:07.189Z,1011.95
2018-07-24T04:10:07.213Z,1011.92
2018-07-24T04:11:07.237Z,1011.93
2018-07-24T04:12:07.261Z,1011.97
2018-07-24T04:13:07.284Z,1011.99
2018-07-24T04:14:07.310Z,1012.02
2018-07-24T04:15:07.334Z,1012.02
2018-07-24T04:16:07.361Z,1012.04
2018-07-24T04:17:07.381Z,1012
2018-07-24T04:18:07.406Z,1012.05
2018-07-24T04:19:07.430Z,1012.02
2018-07-24T04:20:07.458Z,1012.05
2018-07-24T04:21:07.484Z,1012.05
2018-07-24T04:22:07.504Z,1012.08
2018-07-24T04:23:07.529Z,1012.09
2018-07-24T04:24:07.552Z,1012.06
2018-07-24T04:25:07.577Z,1012.11
2018-07-24T04:26:07.606Z,1012.07
2018-07-24T04:27:07.626Z,1012.12
2018-07-24T04:28:07.652Z,1012.07
2018-07-24T04:30:07.699Z,1012.07
2018-07-24T04:31:07.742Z,1012.09
2018-07-24T04:32:07.747Z,1012.09
2018-07-24T04:33:07.774Z,1012.06
2018-07-24T04:34:07.797Z,1012.09
2018-07-24T04:35:07.825Z,1012.12
2018-07-24T04:36:07.849Z,1012.07
2018-07-24T04:37:07.872Z,1012.12
2018-07-24T04:38:07.894Z,1012.1
2018-07-24T04:39:07.919Z,1012.11
2018-07-24T04:40:07.996Z,1012.08
2018-07-24T04:41:07.969Z,1012.07
2018-07-24T04:42:07.993Z,1012.11
2018-07-24T04:43:08.018Z,1012.13
2018-07-24T04:44:08.041Z,1012.2
2018-07-24T04:46:08.090Z,1012.16
2018-07-24T04:47:08.114Z,1012.18
2018-07-24T04:48:08.139Z,1012.18
2018-07-24T04:49:08.167Z,1012.18
2018-07-24T04:50:08.188Z,1012.19
2018-07-24T04:51:08.213Z,1012.28
2018-07-24T04:52:08.237Z,1012.46
2018-07-24T04:53:08.262Z,1012.44
2018-07-24T04:54:08.287Z,1012.49
2018-07-24T04:55:08.311Z,1012.48
2018-07-24T04:56:08.338Z,1012.52
2018-07-24T04:57:08.362Z,1012.53
2018-07-24T04:58:08.389Z,1012.53
2018-07-24T04:59:08.416Z,1012.56
2018-07-24T05:00:08.443Z,1012.57
2018-07-24T05:02:08.496Z,1012.62
2018-07-24T05:03:08.543Z,1012.64
2018-07-24T05:04:08.558Z,1012.61
2018-07-24T05:05:08.587Z,1012.68
2018-07-24T05:06:08.611Z,1012.64
2018-07-24T05:07:08.643Z,1012.7
2018-07-24T05:08:08.670Z,1012.69
2018-07-24T05:09:08.700Z,1012.76
2018-07-24T05:10:08.730Z,1012.79
2018-07-24T05:11:08.760Z,1012.86
2018-07-24T05:12:08.790Z,1012.85
2018-07-24T05:13:08.872Z,1012.93
2018-07-24T05:14:08.858Z,1012.99
2018-07-24T05:15:08.886Z,1012.97
2018-07-24T05:16:08.917Z,1012.99
2018-07-24T05:18:08.979Z,1012.99
2018-07-24T05:19:09.013Z,1013.03
2018-07-24T05:20:09.046Z,1013.13
2018-07-24T05:21:09.077Z,1013.05
2018-07-24T05:22:09.112Z,1013.09
2018-07-24T05:23:09.144Z,1013.05
2018-07-24T05:24:09.182Z,1013.06
2018-07-24T05:25:09.211Z,1013.05
2018-07-24T05:26:09.245Z,1013.07
2018-07-24T05:27:09.279Z,1013.04
2018-07-24T05:28:09.316Z,1013.07
2018-07-24T05:29:09.346Z,1013.1
2018-07-24T05:30:09.381Z,1013.09
2018-07-24T05:31:09.416Z,1013.11
2018-07-24T05:33:09.515Z,1013.12
2018-07-24T05:34:09.520Z,1013.13
2018-07-24T05:35:09.554Z,1013.11
2018-07-24T05:36:09.593Z,1013.12
2018-07-24T05:37:09.625Z,1013.15
2018-07-24T05:38:09.659Z,1013.11
2018-07-24T05:39:09.694Z,1013.14
2018-07-24T05:40:09.731Z,1013.16
2018-07-24T05:41:09.764Z,1013.16
2018-07-24T05:42:09.802Z,1013.15
2018-07-24T05:43:09.838Z,1013.18
2018-07-24T05:44:09.874Z,1013.15
2018-07-24T05:45:09.912Z,1013.15
2018-07-24T05:46:09.945Z,1013.14
2018-07-24T05:47:09.982Z,1013.13
2018-07-24T05:48:10.020Z,1013.18
2018-07-24T05:49:10.054Z,1013.18
2018-07-24T05:50:10.092Z,1013.19
2018-07-24T05:51:10.127Z,1013.21
2018-07-24T05:52:10.162Z,1013.18
2018-07-24T05:53:10.199Z,1013.25
2018-07-24T05:54:10.236Z,1013.22
2018-07-24T05:55:10.275Z,1013.3
2018-07-24T05:56:10.309Z,1013.27
2018-07-24T05:57:10.347Z,1013.24
2018-07-24T05:58:10.383Z,1013.22
2018-07-24T05:59:10.421Z,1013.17
2018-07-24T06:00:10.458Z,1013.18
2018-07-24T06:01:10.495Z,1013.13
2018-07-24T06:02:10.533Z,1013.14
2018-07-24T06:03:10.568Z,1013.19
2018-07-24T06:05:10.645Z,1013.18
2018-07-24T06:06:10.683Z,1013.19
2018-07-24T06:07:10.742Z,1013.18
2018-07-24T06:08:10.758Z,1013.17
2018-07-24T06:09:10.797Z,1013.21
2018-07-24T06:10:10.834Z,1013.2
2018-07-24T06:11:10.875Z,1013.16
2018-07-24T06:12:10.909Z,1013.15
2018-07-24T06:13:10.958Z,1013.21
2018-07-24T06:14:11.086Z,1013.21
2018-07-24T06:15:11.023Z,1013.24
2018-07-24T06:16:11.061Z,1013.31
2018-07-24T06:17:11.103Z,1013.36
2018-07-24T06:18:11.136Z,1013.42
2018-07-24T06:19:11.188Z,1013.5
2018-07-24T06:21:11.251Z,1013.65
2018-07-24T06:22:11.290Z,1013.75
2018-07-24T06:23:11.329Z,1013.76
2018-07-24T06:24:11.368Z,1013.75
2018-07-24T06:25:11.405Z,1013.73
2018-07-24T06:26:11.443Z,1013.8
2018-07-24T06:27:11.482Z,1013.77
2018-07-24T06:28:11.523Z,1013.76
2018-07-24T06:29:11.620Z,1013.77
2018-07-24T06:30:11.599Z,1013.71
2018-07-24T06:31:11.636Z,1013.71
2018-07-24T06:32:11.677Z,1013.67
2018-07-24T06:33:11.716Z,1013.69
2018-07-24T06:34:11.754Z,1013.63
2018-07-24T06:35:11.795Z,1013.63
2018-07-24T06:37:11.871Z,1013.64
2018-07-24T06:38:11.910Z,1013.59
2018-07-24T06:39:11.950Z,1013.63
2018-07-24T06:40:11.988Z,1013.56
2018-07-24T06:41:12.028Z,1013.58
2018-07-24T06:42:12.067Z,1013.65
2018-07-24T06:43:12.118Z,1013.61
2018-07-24T06:44:12.247Z,1013.57
2018-07-24T06:45:12.185Z,1013.53
2018-07-24T06:46:12.225Z,1013.57
2018-07-24T06:47:12.264Z,1013.57
2018-07-24T06:48:12.303Z,1013.6
2018-07-24T06:49:12.342Z,1013.58
2018-07-24T06:50:12.381Z,1013.53
2018-07-24T06:51:12.497Z,1013.4
2018-07-24T06:53:12.501Z,1013.36
2018-07-24T06:54:12.542Z,1013.34
2018-07-24T06:55:12.616Z,1013.4
2018-07-24T06:56:12.620Z,1013.44
2018-07-24T06:57:12.660Z,1013.39
2018-07-24T06:58:12.702Z,1013.36
2018-07-24T06:59:12.738Z,1013.39
2018-07-24T07:00:12.782Z,1013.44
2018-07-24T07:01:12.819Z,1013.44
2018-07-24T07:02:12.923Z,1013.44
2018-07-24T07:03:12.898Z,1013.41
2018-07-24T07:04:12.941Z,1013.39
2018-07-24T07:05:13.057Z,1013.4
2018-07-24T07:06:13.018Z,1013.37
2018-07-24T07:08:13.099Z,1013.35
2018-07-24T07:09:13.138Z,1013.31
2018-07-24T07:10:13.210Z,1013.34
2018-07-24T07:11:13.217Z,1013.34
2018-07-24T07:12:13.257Z,1013.29
2018-07-24T07:13:13.326Z,1013.33
2018-07-24T07:14:13.337Z,1013.27
2018-07-24T07:15:13.378Z,1013.28
2018-07-24T07:16:13.428Z,1013.32
2018-07-24T07:17:13.456Z,1013.42
2018-07-24T07:18:13.498Z,1013.79
2018-07-24T07:19:13.537Z,1014.37
2018-07-24T07:20:13.577Z,1014.61
2018-07-24T07:21:13.618Z,1014.52
2018-07-24T07:22:13.657Z,1014.58
2018-07-24T07:23:13.735Z,1014.58
2018-07-24T07:24:13.750Z,1014.62
2018-07-24T07:25:13.777Z,1014.56
2018-07-24T07:26:13.828Z,1014.53
2018-07-24T07:27:13.855Z,1014.61
2018-07-24T07:28:13.905Z,1014.65
2018-07-24T07:29:14.027Z,1014.57
2018-07-24T07:30:13.976Z,1014.59
2018-07-24T07:31:14.015Z,1014.55
2018-07-24T07:32:14.123Z,1014.6
2018-07-24T07:33:14.096Z,1014.57
2018-07-24T07:34:14.136Z,1014.57
2018-07-24T07:35:14.178Z,1014.5
2018-07-24T07:36:14.214Z,1014.41
2018-07-24T07:37:14.355Z,1014.36
2018-07-24T07:38:14.292Z,1014.27
2018-07-24T07:40:14.374Z,1014.23
2018-07-24T07:41:14.413Z,1014.11
2018-07-24T07:42:14.455Z,1014.06
2018-07-24T07:43:14.492Z,1014.03
2018-07-24T07:44:14.533Z,1013.99
2018-07-24T07:45:14.597Z,1013.94
2018-07-24T07:46:14.612Z,1013.88
2018-07-24T07:47:14.653Z,1013.87
2018-07-24T07:48:14.693Z,1013.83
2018-07-24T07:49:14.730Z,1013.82
2018-07-24T07:50:14.771Z,1013.76
2018-07-24T07:51:14.812Z,1013.71
2018-07-24T07:52:14.852Z,1013.69
2018-07-24T07:53:14.891Z,1013.62
2018-07-24T07:54:14.929Z,1013.61
2018-07-24T07:56:15.011Z,1013.53
2018-07-24T07:57:15.050Z,1013.53
2018-07-24T07:58:15.092Z,1013.49
2018-07-24T07:59:15.128Z,1013.47
2018-07-24T08:00:15.168Z,1013.41
2018-07-24T08:01:15.207Z,1013.43
2018-07-24T08:02:15.247Z,1013.42
2018-07-24T08:03:15.286Z,1013.42
2018-07-24T08:04:15.379Z,1013.44
2018-07-24T08:05:15.365Z,1013.41
2018-07-24T08:06:15.405Z,1013.41
2018-07-24T08:07:15.444Z,1013.39
2018-07-24T08:08:15.483Z,1013.4
2018-07-24T08:09:15.522Z,1013.37
2018-07-24T08:10:15.563Z,1013.36
2018-07-24T08:12:15.652Z,1013.29
2018-07-24T08:13:15.680Z,1013.3
2018-07-24T08:14:15.811Z,1013.29
2018-07-24T08:15:15.760Z,1013.23
2018-07-24T08:16:15.800Z,1013.26
2018-07-24T08:17:15.839Z,1013.22
2018-07-24T08:18:15.878Z,1013.17
2018-07-24T08:19:15.917Z,1013.25
2018-07-24T08:20:15.957Z,1013.26
2018-07-24T08:21:15.996Z,1013.31
2018-07-24T08:22:16.109Z,1013.23
2018-07-24T08:23:16.075Z,1013.23
2018-07-24T08:24:16.122Z,1013.25
2018-07-24T08:25:16.157Z,1013.22
2018-07-24T08:26:16.194Z,1013.21
2018-07-24T08:28:16.383Z,1013.16
2018-07-24T08:29:16.310Z,1013.16
2018-07-24T08:30:16.349Z,1013.09
2018-07-24T08:31:16.388Z,1013.13
2018-07-24T08:32:16.427Z,1013.1
2018-07-24T08:33:16.465Z,1013.05
2018-07-24T08:34:16.507Z,1013.01
2018-07-24T08:35:16.544Z,1012.92
2018-07-24T08:36:16.581Z,1012.9
2018-07-24T08:37:16.621Z,1012.87
2018-07-24T08:38:16.661Z,1012.86
2018-07-24T08:39:16.698Z,1012.85
2018-07-24T08:40:16.736Z,1012.85
2018-07-24T08:41:16.774Z,1012.86
2018-07-24T08:43:16.852Z,1012.96
2018-07-24T08:44:16.889Z,1013.01
2018-07-24T08:45:16.928Z,1012.99
2018-07-24T08:46:16.966Z,1013
2018-07-24T08:47:17.005Z,1012.98
2018-07-24T08:48:17.093Z,1012.84
2018-07-24T08:49:17.104Z,1012.82
2018-07-24T08:50:17.121Z,1012.34
2018-07-24T08:51:17.157Z,1012.86
2018-07-24T08:52:17.203Z,1012.78
2018-07-24T08:53:17.508Z,1012.75
2018-07-24T08:54:17.488Z,1012.75
2018-07-24T08:55:17.594Z,1012.75
2018-07-24T08:56:17.345Z,1012.65
2018-07-24T08:57:17.382Z,1012.54
2018-07-24T08:58:17.423Z,1012.49
2018-07-24T08:59:17.460Z,1012.49
2018-07-24T09:00:17.497Z,1012.46
2018-07-24T09:01:17.534Z,1012.44
2018-07-24T09:02:17.571Z,1012.4
2018-07-24T09:03:17.650Z,1012.42
2018-07-24T09:04:17.662Z,1012.39
2018-07-24T09:05:17.687Z,1012.36
2018-07-24T09:06:17.721Z,1012.36
2018-07-24T09:07:17.761Z,1012.34
2018-07-24T09:08:17.797Z,1012.32
2018-07-24T09:09:17.838Z,1012.29
2018-07-24T09:10:17.928Z,1012.28
2018-07-24T09:11:17.911Z,1012.3
2018-07-24T09:12:17.950Z,1012.27
2018-07-24T09:13:17.986Z,1012.26
2018-07-24T09:15:18.063Z,1012.2
2018-07-24T09:16:18.101Z,1012.22
2018-07-24T09:17:18.138Z,1012.25
2018-07-24T09:18:18.176Z,1012.22
2018-07-24T09:19:18.212Z,1012.25
2018-07-24T09:20:18.252Z,1012.21
2018-07-24T09:21:18.288Z,1012.21
2018-07-24T09:22:18.326Z,1012.2
2018-07-24T09:23:18.364Z,1012.15
2018-07-24T09:24:18.400Z,1012.17
2018-07-24T09:25:18.440Z,1012.18
2018-07-24T09:26:18.478Z,1012.18
2018-07-24T09:27:18.515Z,1012.19
2018-07-24T09:28:18.551Z,1012.18
2018-07-24T09:29:18.590Z,1012.21
2018-07-24T09:31:18.665Z,1012.18
2018-07-24T09:32:18.701Z,1012.25
2018-07-24T09:33:18.739Z,1012.17
2018-07-24T09:34:18.776Z,1012.19
2018-07-24T09:35:18.812Z,1012.15
2018-07-24T09:36:18.853Z,1012.07
2018-07-24T09:37:18.888Z,1012.12
2018-07-24T09:38:18.925Z,1012.08
2018-07-24T09:39:18.962Z,1012.11
2018-07-24T09:40:19.000Z,1012.09
2018-07-24T09:41:19.040Z,1012.08
2018-07-24T09:42:19.074Z,1012.11
2018-07-24T09:43:19.109Z,1012.13
2018-07-24T09:44:19.145Z,1012.09
2018-07-24T09:45:19.183Z,1012.03
2018-07-24T09:47:19.257Z,1012.08
2018-07-24T09:48:19.294Z,1012.07
2018-07-24T09:49:19.331Z,1012.05
2018-07-24T09:50:19.367Z,1012.04
2018-07-24T09:51:19.404Z,1012.05
2018-07-24T09:52:19.440Z,1012.09
2018-07-24T09:53:19.476Z,1012.06
2018-07-24T09:54:19.510Z,1012.03
2018-07-24T09:55:19.546Z,1012.04
2018-07-24T09:56:19.637Z,1012.06
2018-07-24T09:57:19.617Z,1012
2018-07-24T09:58:19.653Z,1012.05
2018-07-24T09:59:19.716Z,1012.07
2018-07-24T10:00:19.723Z,1012.05
2018-07-24T10:01:19.758Z,1012.03
2018-07-24T10:03:19.828Z,1012.02
2018-07-24T10:04:19.864Z,1012.06
2018-07-24T10:05:19.904Z,1011.99
2018-07-24T10:06:19.935Z,1012.02
2018-07-24T10:07:19.968Z,1012.04
2018-07-24T10:08:20.004Z,1012.06
2018-07-24T10:09:20.044Z,1012.03
2018-07-24T10:10:20.075Z,1012.02
2018-07-24T10:11:20.211Z,1011.99
2018-07-24T10:12:20.149Z,1011.97
2018-07-24T10:13:20.385Z,1011.94
2018-07-24T10:14:20.216Z,1011.97
2018-07-24T10:15:20.252Z,1011.96
2018-07-24T10:16:20.290Z,1011.91
2018-07-24T10:18:20.363Z,1011.85
2018-07-24T10:19:20.394Z,1011.87
2018-07-24T10:20:20.430Z,1011.83
2018-07-24T10:21:20.465Z,1011.83
2018-07-24T10:22:20.586Z,1011.84
2018-07-24T10:23:20.534Z,1011.83
2018-07-24T10:24:20.617Z,1011.82
2018-07-24T10:25:20.604Z,1011.79
2018-07-24T10:26:20.641Z,1011.82
2018-07-24T10:27:20.674Z,1011.85
2018-07-24T10:28:20.710Z,1011.86
2018-07-24T10:29:20.743Z,1011.85
2018-07-24T10:30:20.795Z,1011.83
2018-07-24T10:31:20.811Z,1011.84
2018-07-24T10:32:20.846Z,1011.8
2018-07-24T10:33:20.881Z,1011.79
2018-07-24T10:34:20.916Z,1011.78
2018-07-24T10:35:20.949Z,1011.79
2018-07-24T10:36:20.986Z,1011.8
2018-07-24T10:37:21.017Z,1011.79
2018-07-24T10:38:21.050Z,1011.83
2018-07-24T10:39:21.087Z,1011.83
2018-07-24T10:40:21.121Z,1011.88
2018-07-24T10:41:21.154Z,1011.84
2018-07-24T10:42:21.189Z,1011.83
2018-07-24T10:43:21.224Z,1011.78
2018-07-24T10:44:21.258Z,1011.77
2018-07-24T10:45:21.291Z,1011.76
2018-07-24T10:46:21.327Z,1011.75
2018-07-24T10:47:21.360Z,1011.71
2018-07-24T10:48:21.400Z,1011.7
2018-07-24T10:50:21.464Z,1011.67
2018-07-24T10:51:21.499Z,1011.63
2018-07-24T10:52:21.542Z,1011.66
2018-07-24T10:53:21.567Z,1011.64
2018-07-24T10:54:21.609Z,1011.61
2018-07-24T10:55:21.640Z,1011.64
2018-07-24T10:56:21.669Z,1011.65
2018-07-24T10:57:21.706Z,1011.61
2018-07-24T10:58:21.740Z,1011.59
2018-07-24T10:59:21.773Z,1011.59
2018-07-24T11:00:21.808Z,1011.57
2018-07-24T11:01:21.843Z,1011.56
2018-07-24T11:02:21.876Z,1011.59
2018-07-24T11:03:21.910Z,1011.59
2018-07-24T11:04:21.944Z,1011.62
2018-07-24T11:06:22.014Z,1011.55
2018-07-24T11:07:22.047Z,1011.5
2018-07-24T11:08:22.081Z,1011.55
2018-07-24T11:09:22.114Z,1011.52
2018-07-24T11:10:22.148Z,1011.52
2018-07-24T11:11:22.182Z,1011.52
2018-07-24T11:12:22.214Z,1011.51
2018-07-24T11:13:22.249Z,1011.46
2018-07-24T11:14:22.281Z,1011.42
2018-07-24T11:15:22.316Z,1011.49
2018-07-24T11:16:22.349Z,1011.48
2018-07-24T11:17:22.383Z,1011.49
2018-07-24T11:18:22.415Z,1011.47
2018-07-24T11:19:22.449Z,1011.41
2018-07-24T11:20:22.484Z,1011.42
2018-07-24T11:22:22.662Z,1011.4
2018-07-24T11:23:22.581Z,1011.35
2018-07-24T11:24:22.614Z,1011.39
2018-07-24T11:25:22.645Z,1011.4
2018-07-24T11:26:22.685Z,1011.38
2018-07-24T11:27:22.775Z,1011.39
2018-07-24T11:28:22.782Z,1011.41
2018-07-24T11:29:22.778Z,1011.4
2018-07-24T11:30:22.812Z,1011.37
2018-07-24T11:31:22.844Z,1011.42
2018-07-24T11:32:22.877Z,1011.37
2018-07-24T11:33:22.953Z,1011.36
2018-07-24T11:34:22.943Z,1011.4
2018-07-24T11:35:22.990Z,1011.4
2018-07-24T11:36:23.148Z,1011.36
2018-07-24T11:38:23.075Z,1011.34
2018-07-24T11:39:23.108Z,1011.41
2018-07-24T11:40:23.140Z,1011.42
2018-07-24T11:41:23.177Z,1011.45
2018-07-24T11:42:23.206Z,1011.38
2018-07-24T11:43:23.289Z,1011.43
2018-07-24T11:44:23.272Z,1011.46
2018-07-24T11:45:23.306Z,1011.45
2018-07-24T11:46:23.384Z,1011.47
2018-07-24T11:47:23.392Z,1011.43
2018-07-24T11:48:23.402Z,1011.39
2018-07-24T11:49:23.435Z,1011.36
2018-07-24T11:50:23.468Z,1011.38
2018-07-24T11:51:23.543Z,1011.35
2018-07-24T11:53:23.566Z,1011.36
2018-07-24T11:54:23.598Z,1011.31
2018-07-24T11:55:23.631Z,1011.32
2018-07-24T11:56:23.664Z,1011.34
2018-07-24T11:57:23.697Z,1011.31
2018-07-24T11:58:23.729Z,1011.3
2018-07-24T11:59:23.761Z,1011.26
2018-07-24T12:00:23.794Z,1011.3
2018-07-24T12:01:23.825Z,1011.26
2018-07-24T12:02:23.858Z,1011.25
2018-07-24T12:03:23.902Z,1011.21
2018-07-24T12:04:23.923Z,1011.18
2018-07-24T12:05:23.955Z,1011.2
2018-07-24T12:06:23.987Z,1011.18
2018-07-24T12:07:24.021Z,1011.17
2018-07-24T12:08:24.053Z,1011.16
2018-07-24T12:09:24.085Z,1011.17
2018-07-24T12:10:24.116Z,1011.21
2018-07-24T12:11:24.151Z,1011.17
2018-07-24T12:12:24.182Z,1011.17
2018-07-24T12:13:24.212Z,1011.14
2018-07-24T12:14:24.245Z,1011.07
2018-07-24T12:15:24.279Z,1011.07
2018-07-24T12:16:24.307Z,1011.04
2018-07-24T12:17:24.342Z,1011.01
2018-07-24T12:18:24.373Z,1011.03
2018-07-24T12:19:24.406Z,1011.07
2018-07-24T12:20:24.437Z,1011.06
2018-07-24T12:21:24.470Z,1011.03
2018-07-24T12:22:24.501Z,1011.03
2018-07-24T12:23:24.533Z,1011.02
2018-07-24T12:25:24.597Z,1011.07
2018-07-24T12:26:24.630Z,1011.09
2018-07-24T12:27:24.662Z,1011.07
2018-07-24T12:28:24.694Z,1011.1
2018-07-24T12:29:24.726Z,1011.08
2018-07-24T12:30:24.759Z,1011.13
2018-07-24T12:31:24.790Z,1011.09
2018-07-24T12:32:24.822Z,1011.01
2018-07-24T12:33:24.854Z,1011
2018-07-24T12:34:24.885Z,1011
2018-07-24T12:35:24.917Z,1011
2018-07-24T12:36:24.949Z,1011.03
2018-07-24T12:37:24.987Z,1011.03
2018-07-24T12:38:25.012Z,1011.02
2018-07-24T12:39:25.045Z,1011
2018-07-24T12:41:25.109Z,1011.02
2018-07-24T12:42:25.138Z,1010.99
2018-07-24T12:43:25.184Z,1010.98
2018-07-24T12:44:25.228Z,1010.96
2018-07-24T12:45:25.236Z,1010.97
2018-07-24T12:46:25.266Z,1011.02
2018-07-24T12:47:25.297Z,1011.05
2018-07-24T12:48:25.329Z,1011.02
2018-07-24T12:49:25.361Z,1010.99